Time;durP1;ratioP1;P1;durP2;ratioP2;P2;SDS_P1;SDS_P2;PMS_P1;PMS_P2;Temp;Humidity;BMP_temperature;BMP_pressure;BME280_temperature;BME280_humidity;BME280_pressure;Samples;Min_cycle;Max_cycle;Signal;HPM_P1;HPM_P2
2021/05/30 00:02:15;;;;;;;1.52;0.93;;;21.90;48.20;;;;;;5051289;28;20036;-43
2021/05/30 00:04:41;;;;;;;1.55;0.93;;;21.90;48.20;;;;;;5050899;28;20029;-43
2021/05/30 00:07:07;;;;;;;1.17;0.82;;;22.00;48.30;;;;;;5052236;28;20112;-43
2021/05/30 00:09:34;;;;;;;0.98;0.80;;;21.90;48.20;;;;;;5050949;28;20154;-43
2021/05/30 00:12:00;;;;;;;2.60;1.00;;;21.90;48.20;;;;;;5050746;28;20047;-43
2021/05/30 00:14:25;;;;;;;1.23;1.00;;;21.90;48.20;;;;;;5050330;28;20131;-43
2021/05/30 00:16:51;;;;;;;1.05;0.70;;;21.90;48.90;;;;;;5050768;28;20104;-42
2021/05/30 00:19:18;;;;;;;0.93;0.82;;;21.90;48.20;;;;;;5049577;28;20458;-43
2021/05/30 00:21:44;;;;;;;1.95;1.20;;;21.90;48.20;;;;;;5051134;28;20029;-42
2021/05/30 00:24:10;;;;;;;0.85;0.75;;;21.90;48.20;;;;;;5049907;28;20385;-42
2021/05/30 00:26:39;;;;;;;3.08;0.93;;;21.90;48.20;;;;;;5050879;28;20038;-43
2021/05/30 00:29:05;;;;;;;1.13;0.70;;;21.90;48.20;;;;;;5053902;28;20079;-44
2021/05/30 00:31:30;;;;;;;1.83;0.80;;;21.90;48.20;;;;;;5054637;28;20468;-42
2021/05/30 00:33:56;;;;;;;1.52;1.00;;;21.90;48.10;;;;;;5053168;28;20132;-43
2021/05/30 00:36:22;;;;;;;3.45;0.90;;;21.90;48.10;;;;;;5053320;28;20144;-42
2021/05/30 00:38:47;;;;;;;2.05;1.10;;;21.80;48.00;;;;;;5054643;28;20477;-42
2021/05/30 00:41:13;;;;;;;1.08;0.80;;;21.90;48.10;;;;;;5053860;28;20025;-42
2021/05/30 00:43:52;;;;;;;1.77;0.93;;;21.90;48.10;;;;;;5054378;28;20378;-42
2021/05/30 00:46:19;;;;;;;1.30;0.90;;;21.90;48.10;;;;;;5053337;28;20028;-42
2021/05/30 00:48:45;;;;;;;2.28;1.00;;;21.80;48.00;;;;;;5054191;28;20453;-42
2021/05/30 00:51:11;;;;;;;1.15;1.00;;;21.80;48.00;;;;;;5053210;28;20021;-42
2021/05/30 00:53:37;;;;;;;1.80;0.85;;;21.80;47.90;;;;;;5054111;28;20040;-43
2021/05/30 00:56:06;;;;;;;1.65;0.93;;;21.80;47.90;;;;;;5053820;28;20021;-44
2021/05/30 00:58:31;;;;;;;2.15;1.27;;;21.80;47.90;;;;;;5053797;28;20132;-43
2021/05/30 01:00:57;;;;;;;1.27;1.00;;;21.80;47.90;;;;;;5054204;28;20434;-42
2021/05/30 01:03:23;;;;;;;1.27;0.90;;;21.80;47.90;;;;;;5053315;28;20349;-42
2021/05/30 01:05:48;;;;;;;1.75;1.17;;;21.80;47.90;;;;;;5053839;28;20462;-43
2021/05/30 01:08:15;;;;;;;1.42;0.95;;;21.80;47.90;;;;;;5059235;28;20486;-42
2021/05/30 01:10:46;;;;;;;1.20;0.90;;;21.80;47.80;;;;;;5054083;28;20021;-42
2021/05/30 01:13:14;;;;;;;1.45;1.10;;;21.80;47.80;;;;;;5052935;28;20064;-43
2021/05/30 01:15:41;;;;;;;1.75;1.10;;;21.80;47.90;;;;;;5053663;28;20489;-42
2021/05/30 01:18:07;;;;;;;1.10;0.85;;;21.80;47.90;;;;;;5035373;28;20528;-44
2021/05/30 01:20:33;;;;;;;1.92;1.10;;;21.80;47.80;;;;;;5035448;28;20033;-43
2021/05/30 01:23:06;;;;;;;2.13;1.20;;;21.80;47.80;;;;;;5053441;28;20078;-42
2021/05/30 01:25:31;;;;;;;1.00;0.90;;;21.80;47.80;;;;;;5052939;28;20025;-42
2021/05/30 01:27:57;;;;;;;1.77;1.00;;;21.80;47.80;;;;;;5053462;28;20032;-44
2021/05/30 01:30:23;;;;;;;2.28;1.10;;;21.80;47.80;;;;;;5052519;28;20029;-42
2021/05/30 01:32:50;;;;;;;1.60;1.30;;;21.80;47.80;;;;;;5052928;28;20044;-43
2021/05/30 01:35:16;;;;;;;1.52;0.98;;;21.80;47.80;;;;;;5052097;28;20041;-43
2021/05/30 01:37:42;;;;;;;1.60;1.00;;;21.70;47.70;;;;;;5052693;28;20029;-43
2021/05/30 01:40:09;;;;;;;1.90;1.20;;;21.70;48.30;;;;;;5051113;28;20115;-44
2021/05/30 01:42:35;;;;;;;1.88;1.00;;;21.80;47.70;;;;;;5052987;28;20072;-43
2021/05/30 01:45:02;;;;;;;1.40;0.98;;;21.80;47.70;;;;;;5052367;28;20032;-44
2021/05/30 01:47:28;;;;;;;2.00;1.05;;;21.80;47.70;;;;;;5052638;28;20083;-42
2021/05/30 01:49:53;;;;;;;2.00;0.90;;;21.80;47.70;;;;;;5052790;28;20056;-43
2021/05/30 01:52:19;;;;;;;4.97;1.30;;;21.80;47.70;;;;;;5051941;28;20069;-43
2021/05/30 01:54:49;;;;;;;2.13;1.00;;;21.80;47.70;;;;;;5052578;28;20389;-43
2021/05/30 01:57:16;;;;;;;1.83;1.23;;;21.80;47.60;;;;;;5051691;28;20040;-42
2021/05/30 01:59:44;;;;;;;1.50;1.05;;;21.80;47.70;;;;;;5052914;28;20033;-43
2021/05/30 02:02:10;;;;;;;1.88;1.38;;;21.70;47.60;;;;;;5051813;28;20025;-45
2021/05/30 02:04:40;;;;;;;2.05;1.23;;;21.80;47.60;;;;;;5052462;28;20501;-43
2021/05/30 02:07:07;;;;;;;4.38;1.40;;;21.80;47.60;;;;;;5052622;28;20025;-44
2021/05/30 02:09:38;;;;;;;1.50;1.10;;;21.80;47.60;;;;;;5052456;28;20029;-43
2021/05/30 02:12:07;;;;;;;1.65;1.10;;;21.70;47.50;;;;;;5051370;28;20444;-42
2021/05/30 02:14:34;;;;;;;1.17;1.00;;;21.80;47.60;;;;;;5052447;28;20039;-42
2021/05/30 02:17:00;;;;;;;2.10;1.02;;;21.70;47.50;;;;;;5052503;28;20032;-43
2021/05/30 02:19:26;;;;;;;2.10;1.20;;;21.70;47.40;;;;;;5052001;28;20040;-42
2021/05/30 02:21:53;;;;;;;1.50;1.10;;;21.70;47.40;;;;;;5052209;28;20413;-43
2021/05/30 02:24:21;;;;;;;1.85;1.00;;;21.70;47.40;;;;;;5051538;28;20116;-43
2021/05/30 02:26:47;;;;;;;1.52;1.30;;;21.70;47.40;;;;;;5051738;28;20036;-43
2021/05/30 02:29:37;;;;;;;2.72;1.15;;;21.70;47.40;;;;;;5051723;28;20112;-43
2021/05/30 02:32:05;;;;;;;1.80;1.20;;;21.70;47.40;;;;;;5044701;28;20041;-42
2021/05/30 02:34:31;;;;;;;1.77;1.13;;;21.70;47.40;;;;;;5051575;28;20033;-42
2021/05/30 02:36:56;;;;;;;1.58;1.02;;;21.70;47.30;;;;;;5051971;28;20040;-43
2021/05/30 02:39:23;;;;;;;1.45;1.00;;;21.70;47.40;;;;;;5051500;28;20029;-43
2021/05/30 02:41:49;;;;;;;1.35;0.95;;;21.70;47.30;;;;;;5051747;28;20382;-43
2021/05/30 02:44:15;;;;;;;1.35;1.10;;;21.80;47.40;;;;;;5051379;28;20033;-42
2021/05/30 02:46:40;;;;;;;1.88;1.10;;;21.70;47.30;;;;;;5052237;28;20032;-42
2021/05/30 02:49:06;;;;;;;1.95;0.90;;;21.70;47.30;;;;;;5052078;28;20021;-42
2021/05/30 02:51:32;;;;;;;1.95;1.13;;;21.70;47.30;;;;;;5050562;28;20040;-42
2021/05/30 02:53:59;;;;;;;2.28;1.10;;;21.70;47.30;;;;;;5051819;28;20033;-42
2021/05/30 02:56:25;;;;;;;1.75;1.10;;;21.70;47.20;;;;;;5032976;28;20033;-43
2021/05/30 02:58:50;;;;;;;1.05;0.90;;;21.70;47.20;;;;;;5052123;28;20078;-42
2021/05/30 03:01:16;;;;;;;1.88;1.50;;;21.70;47.20;;;;;;5050863;28;20033;-42
2021/05/30 03:03:42;;;;;;;2.10;1.38;;;21.70;47.20;;;;;;5051641;28;20029;-42
2021/05/30 03:06:07;;;;;;;2.42;1.42;;;21.70;47.20;;;;;;5051854;28;20095;-44
2021/05/30 03:08:33;;;;;;;3.65;1.38;;;21.70;47.20;;;;;;5057567;28;20025;-42
2021/05/30 03:10:58;;;;;;;2.72;1.20;;;21.70;47.20;;;;;;5051437;28;20021;-43
2021/05/30 03:13:24;;;;;;;1.95;1.10;;;21.70;47.20;;;;;;5050780;28;20485;-42
2021/05/30 03:15:50;;;;;;;2.13;1.17;;;21.70;47.20;;;;;;5051910;28;20028;-43
2021/05/30 03:18:16;;;;;;;1.40;0.90;;;21.70;47.20;;;;;;5050558;28;20033;-42
2021/05/30 03:20:42;;;;;;;1.30;1.10;;;21.70;47.20;;;;;;5051652;28;20021;-42
2021/05/30 03:23:08;;;;;;;1.67;1.30;;;21.70;47.10;;;;;;5051213;28;20112;-42
2021/05/30 03:25:34;;;;;;;2.47;1.25;;;21.70;47.10;;;;;;5050783;28;20496;-42
2021/05/30 03:28:00;;;;;;;2.25;1.67;;;21.70;47.10;;;;;;5051587;28;20029;-43
2021/05/30 03:30:26;;;;;;;1.20;0.93;;;21.70;47.10;;;;;;5050408;28;20033;-43
2021/05/30 03:32:51;;;;;;;1.60;1.08;;;21.70;47.10;;;;;;5051442;28;20411;-43
2021/05/30 03:35:17;;;;;;;1.50;1.10;;;21.70;47.10;;;;;;5050536;28;20033;-43
2021/05/30 03:37:43;;;;;;;1.90;1.10;;;21.70;47.10;;;;;;5050700;28;20028;-43
2021/05/30 03:42:58;;;;;;;1.50;1.00;;;21.70;47.00;;;;;;5045122;28;20398;-43
2021/05/30 03:45:25;;;;;;;2.10;1.25;;;21.70;47.10;;;;;;5050085;28;20028;-42
2021/05/30 03:47:51;;;;;;;1.63;1.10;;;21.70;47.10;;;;;;5050996;28;20029;-43
2021/05/30 03:50:17;;;;;;;1.58;1.00;;;21.70;47.00;;;;;;5050229;28;20100;-42
2021/05/30 03:52:43;;;;;;;1.88;1.13;;;21.70;47.00;;;;;;5050766;28;20040;-42
2021/05/30 03:55:09;;;;;;;1.48;1.02;;;21.70;47.10;;;;;;5051226;28;20022;-43
2021/05/30 03:57:35;;;;;;;1.73;1.13;;;21.70;47.00;;;;;;5050141;28;20068;-42
2021/05/30 04:00:04;;;;;;;1.98;1.17;;;21.70;47.00;;;;;;5051247;28;20067;-43
2021/05/30 04:02:29;;;;;;;3.47;1.30;;;21.70;47.00;;;;;;5051228;28;20033;-43
2021/05/30 04:04:55;;;;;;;1.63;1.20;;;21.70;46.90;;;;;;5055613;28;20025;-42
2021/05/30 04:07:21;;;;;;;1.67;1.10;;;21.70;47.00;;;;;;5055485;28;20488;-42
2021/05/30 04:09:46;;;;;;;3.08;1.42;;;21.70;47.00;;;;;;5054628;28;20090;-43
2021/05/30 04:12:12;;;;;;;1.67;1.35;;;21.70;46.90;;;;;;5054237;28;20029;-44
2021/05/30 04:14:38;;;;;;;1.50;1.13;;;21.70;46.90;;;;;;5054559;28;20025;-42
2021/05/30 04:17:03;;;;;;;2.13;1.63;;;21.70;46.90;;;;;;5054609;28;20033;-43
2021/05/30 04:19:29;;;;;;;2.13;1.30;;;21.70;46.90;;;;;;5054356;28;20021;-43
2021/05/30 04:21:55;;;;;;;2.00;1.10;;;21.70;46.80;;;;;;5055012;28;20060;-44
2021/05/30 04:24:20;;;;;;;3.08;1.13;;;21.70;46.80;;;;;;5053798;28;20032;-43
2021/05/30 04:26:46;;;;;;;1.80;1.25;;;21.70;46.80;;;;;;5054534;28;20029;-42
2021/05/30 04:29:12;;;;;;;1.17;1.08;;;21.70;46.80;;;;;;5054433;28;20041;-45
2021/05/30 04:31:37;;;;;;;2.70;1.83;;;21.70;46.80;;;;;;5054570;28;20075;-42
2021/05/30 04:34:03;;;;;;;2.30;1.40;;;21.70;46.80;;;;;;5036450;28;20029;-43
2021/05/30 04:36:29;;;;;;;1.73;1.10;;;21.70;46.80;;;;;;5052801;28;20100;-43
2021/05/30 04:38:54;;;;;;;2.08;0.95;;;21.70;46.80;;;;;;5053898;28;20049;-43
2021/05/30 04:41:20;;;;;;;1.83;1.30;;;21.70;46.80;;;;;;5053737;28;20036;-42
2021/05/30 04:43:46;;;;;;;1.67;1.23;;;21.70;46.80;;;;;;5054258;28;20525;-42
2021/05/30 04:46:11;;;;;;;2.03;1.40;;;21.70;46.70;;;;;;5053856;28;20112;-44
2021/05/30 04:48:37;;;;;;;1.75;1.25;;;21.70;46.70;;;;;;5054110;28;20025;-42
2021/05/30 04:51:06;;;;;;;2.17;1.10;;;21.70;46.70;;;;;;5054161;28;20417;-44
2021/05/30 04:53:36;;;;;;;1.50;1.20;;;21.70;46.80;;;;;;5053473;28;20257;-43
2021/05/30 04:56:04;;;;;;;1.42;1.20;;;21.70;46.70;;;;;;5054102;28;20067;-42
2021/05/30 04:58:29;;;;;;;3.17;1.30;;;21.70;46.80;;;;;;5053020;28;20061;-43
2021/05/30 05:00:55;;;;;;;2.30;1.42;;;21.70;46.70;;;;;;5054067;28;20029;-43
2021/05/30 05:03:21;;;;;;;1.77;1.45;;;21.70;46.70;;;;;;5053294;28;20032;-42
2021/05/30 05:05:47;;;;;;;2.45;1.52;;;21.70;46.70;;;;;;5053844;28;20493;-42
2021/05/30 05:08:12;;;;;;;1.80;1.23;;;21.70;46.70;;;;;;5058547;28;20382;-44
2021/05/30 05:10:38;;;;;;;1.85;1.10;;;21.70;46.70;;;;;;5053364;28;20570;-42
2021/05/30 05:13:03;;;;;;;2.35;1.25;;;21.60;46.70;;;;;;5053561;28;20047;-42
2021/05/30 05:15:29;;;;;;;1.10;1.00;;;21.70;46.70;;;;;;5053185;28;20029;-42
2021/05/30 05:17:55;;;;;;;2.45;1.23;;;21.70;46.70;;;;;;5053595;28;20033;-43
2021/05/30 05:20:20;;;;;;;1.67;0.95;;;21.70;46.70;;;;;;5052979;28;20029;-42
2021/05/30 05:22:46;;;;;;;2.00;1.27;;;21.70;46.70;;;;;;5052665;28;20036;-42
2021/05/30 05:25:12;;;;;;;1.95;1.20;;;21.70;46.70;;;;;;5053463;28;20424;-43
2021/05/30 05:27:37;;;;;;;1.67;1.13;;;21.70;46.70;;;;;;5053116;28;20075;-43
2021/05/30 05:30:04;;;;;;;1.48;1.15;;;21.70;46.70;;;;;;5053787;28;20086;-42
2021/05/30 05:32:30;;;;;;;1.73;1.10;;;21.70;46.80;;;;;;5052705;28;20028;-42
2021/05/30 05:34:55;;;;;;;1.35;1.25;;;21.70;46.70;;;;;;5053322;28;20094;-42
2021/05/30 05:37:21;;;;;;;5.97;2.13;;;21.70;46.80;;;;;;5052806;28;20425;-42
2021/05/30 05:39:46;;;;;;;3.00;1.50;;;21.60;46.70;;;;;;5053135;28;20443;-42
2021/05/30 05:42:12;;;;;;;2.40;1.50;;;21.60;46.70;;;;;;5053047;28;20041;-43
2021/05/30 05:44:38;;;;;;;1.42;1.15;;;21.60;46.70;;;;;;5052552;28;20033;-43
2021/05/30 05:47:04;;;;;;;1.52;1.15;;;21.60;46.70;;;;;;5053446;28;20029;-42
2021/05/30 05:49:33;;;;;;;2.45;1.30;;;21.70;46.80;;;;;;5052329;28;20021;-43
2021/05/30 05:51:59;;;;;;;1.15;1.05;;;21.60;46.70;;;;;;5053132;28;20037;-42
2021/05/30 05:54:24;;;;;;;1.45;1.15;;;21.60;46.70;;;;;;5052148;28;20466;-43
2021/05/30 05:56:50;;;;;;;1.67;1.23;;;21.70;46.70;;;;;;5053193;28;20067;-42
2021/05/30 05:59:15;;;;;;;1.52;1.05;;;21.70;46.70;;;;;;5050340;28;20703;-44
2021/05/30 06:01:41;;;;;;;1.98;1.30;;;21.60;46.70;;;;;;5052679;28;20040;-43
2021/05/30 06:04:07;;;;;;;3.92;1.52;;;21.60;46.70;;;;;;5050963;28;20033;-43
2021/05/30 06:06:32;;;;;;;6.88;1.95;;;21.60;46.90;;;;;;5057115;28;20041;-43
2021/05/30 06:08:58;;;;;;;5.25;1.48;;;21.70;47.00;;;;;;5055702;28;20447;-43
2021/05/30 06:11:24;;;;;;;5.63;2.10;;;21.70;47.20;;;;;;5051813;28;20100;-42
2021/05/30 06:13:49;;;;;;;7.32;1.80;;;21.70;47.40;;;;;;5032451;28;20040;-44
2021/05/30 06:16:15;;;;;;;7.20;1.92;;;21.70;47.50;;;;;;5051831;28;20036;-44
2021/05/30 06:18:43;;;;;;;8.48;1.80;;;21.80;47.50;;;;;;5052802;28;20020;-43
2021/05/30 06:21:08;;;;;;;7.82;1.60;;;21.80;47.50;;;;;;5060686;28;20064;-43
2021/05/30 06:23:34;;;;;;;9.43;1.83;;;21.80;47.60;;;;;;5061088;28;20256;-43
2021/05/30 06:26:00;;;;;;;6.72;2.08;;;21.80;47.50;;;;;;5057249;28;20112;-43
2021/05/30 06:28:26;;;;;;;5.30;1.40;;;21.80;47.50;;;;;;5059893;28;20065;-43
2021/05/30 06:30:51;;;;;;;4.53;1.58;;;21.90;47.60;;;;;;5058590;28;20118;-43
2021/05/30 06:33:17;;;;;;;7.55;1.58;;;21.90;47.60;;;;;;5058190;28;20033;-44
2021/05/30 06:35:43;;;;;;;3.30;1.30;;;21.90;47.70;;;;;;5060239;28;20031;-42
2021/05/30 06:38:09;;;;;;;3.90;1.60;;;21.90;47.60;;;;;;5059982;28;20432;-43
2021/05/30 06:40:36;;;;;;;5.03;2.13;;;21.90;47.60;;;;;;5061548;28;20208;-43
2021/05/30 06:43:02;;;;;;;6.00;1.42;;;21.90;47.70;;;;;;5055308;28;20052;-42
2021/05/30 06:45:28;;;;;;;5.85;2.22;;;21.90;47.60;;;;;;5059416;28;20028;-43
2021/05/30 06:47:55;;;;;;;8.07;1.50;;;21.90;47.70;;;;;;5059857;28;20405;-42
2021/05/30 06:50:21;;;;;;;5.00;1.70;;;21.90;47.70;;;;;;5057993;28;20107;-43
2021/05/30 06:52:47;;;;;;;12.32;2.15;;;21.90;47.80;;;;;;5059771;28;20180;-43
2021/05/30 06:55:13;;;;;;;6.18;1.50;;;21.90;47.80;;;;;;5060649;28;20037;-43
2021/05/30 06:57:39;;;;;;;3.47;1.58;;;22.00;48.00;;;;;;5060029;28;20596;-42
2021/05/30 07:00:06;;;;;;;4.90;1.50;;;22.00;47.90;;;;;;5056217;28;20195;-42
2021/05/30 07:02:32;;;;;;;3.33;1.17;;;22.00;48.00;;;;;;5058973;28;20040;-43
2021/05/30 07:04:58;;;;;;;3.03;1.48;;;22.00;48.00;;;;;;5058851;28;20031;-43
2021/05/30 07:07:23;;;;;;;7.35;1.60;;;22.00;47.90;;;;;;5055544;28;20074;-43
2021/05/30 07:09:49;;;;;;;8.43;1.90;;;22.00;48.10;;;;;;5061138;28;20028;-43
2021/05/30 07:12:15;;;;;;;8.30;2.05;;;22.00;48.20;;;;;;5061026;28;20033;-43
2021/05/30 07:14:40;;;;;;;10.52;2.00;;;22.00;48.10;;;;;;5056857;28;20025;-43
2021/05/30 07:17:06;;;;;;;4.78;2.40;;;22.00;48.20;;;;;;5057272;28;20427;-43
2021/05/30 07:19:32;;;;;;;7.32;2.00;;;22.00;48.00;;;;;;5057488;28;20108;-43
2021/05/30 07:21:57;;;;;;;7.75;1.70;;;22.00;48.30;;;;;;5058653;28;20059;-43
2021/05/30 07:24:23;;;;;;;4.80;1.58;;;22.00;48.30;;;;;;5059265;28;20025;-43
2021/05/30 07:26:49;;;;;;;5.63;2.03;;;22.00;48.90;;;;;;5060977;28;20054;-43
2021/05/30 07:29:16;;;;;;;7.80;2.60;;;22.00;48.20;;;;;;5060083;28;20033;-42
2021/05/30 07:31:42;;;;;;;6.65;1.73;;;22.00;48.20;;;;;;5053836;28;20056;-43
2021/05/30 07:34:08;;;;;;;7.60;2.15;;;22.00;48.20;;;;;;5060225;28;20064;-42
2021/05/30 07:36:33;;;;;;;4.30;1.73;;;22.00;48.20;;;;;;5058730;28;20506;-43
2021/05/30 07:38:59;;;;;;;5.07;1.95;;;22.00;48.10;;;;;;5060935;28;20029;-43
2021/05/30 07:41:26;;;;;;;7.22;2.10;;;22.00;48.10;;;;;;5060620;28;20025;-43
2021/05/30 07:43:52;;;;;;;6.22;1.90;;;22.10;48.20;;;;;;5057095;28;20393;-43
2021/05/30 07:46:18;;;;;;;5.90;1.67;;;22.00;48.20;;;;;;5062531;28;20111;-43
2021/05/30 07:48:43;;;;;;;4.45;2.08;;;22.10;48.20;;;;;;5056291;28;20100;-42
2021/05/30 07:51:09;;;;;;;2.60;1.67;;;22.00;48.20;;;;;;5058372;28;20107;-42
2021/05/30 07:53:35;;;;;;;11.18;1.52;;;22.10;48.20;;;;;;5058838;28;20071;-43
2021/05/30 07:56:01;;;;;;;7.00;1.77;;;22.10;48.20;;;;;;5058707;28;20024;-40
2021/05/30 07:58:26;;;;;;;4.43;1.88;;;22.10;48.10;;;;;;5056091;28;20086;-41
2021/05/30 08:00:52;;;;;;;6.93;2.10;;;22.10;48.20;;;;;;5061144;28;20033;-41
2021/05/30 08:03:18;;;;;;;12.00;2.75;;;22.10;48.40;;;;;;5059522;28;20053;-42
2021/05/30 08:05:44;;;;;;;12.85;2.22;;;22.10;48.50;;;;;;5035798;28;20087;-43
2021/05/30 08:08:10;;;;;;;23.88;2.92;;;22.10;48.30;;;;;;5055974;28;20037;-40
2021/05/30 08:10:36;;;;;;;7.22;1.70;;;22.10;48.40;;;;;;5060429;28;20471;-41
2021/05/30 08:13:02;;;;;;;8.75;2.22;;;22.10;48.40;;;;;;5040696;28;20493;-40
2021/05/30 08:15:27;;;;;;;9.60;1.70;;;22.10;48.40;;;;;;5053745;28;20355;-43
2021/05/30 08:17:54;;;;;;;12.68;2.55;;;22.10;48.30;;;;;;5059055;28;20040;-40
2021/05/30 08:20:22;;;;;;;6.93;2.72;;;22.10;48.60;;;;;;5057932;28;20021;-42
2021/05/30 08:22:49;;;;;;;6.78;2.05;;;22.10;48.70;;;;;;5060725;28;20112;-41
2021/05/30 08:25:16;;;;;;;8.90;2.15;;;22.10;48.50;;;;;;5060621;28;20385;-40
2021/05/30 08:27:42;;;;;;;11.18;2.38;;;22.10;48.60;;;;;;5057380;28;20025;-40
2021/05/30 08:30:09;;;;;;;11.73;2.20;;;22.10;48.60;;;;;;5060624;28;20093;-41
2021/05/30 08:32:35;;;;;;;8.57;1.70;;;22.10;48.70;;;;;;5060359;28;20028;-42
2021/05/30 08:35:01;;;;;;;9.25;1.85;;;22.10;48.00;;;;;;5055878;28;20404;-42
2021/05/30 08:37:27;;;;;;;29.80;3.95;;;22.10;48.10;;;;;;5057326;28;20028;-46
2021/05/30 08:39:53;;;;;;;25.52;3.78;;;22.10;48.80;;;;;;5057078;28;20035;-47
2021/05/30 08:42:19;;;;;;;15.63;2.85;;;22.20;49.20;;;;;;5058298;28;20021;-46
2021/05/30 08:44:46;;;;;;;16.23;4.25;;;22.10;49.30;;;;;;5048762;28;20032;-47
2021/05/30 08:47:12;;;;;;;14.13;2.40;;;22.20;49.10;;;;;;5055015;28;20513;-47
2021/05/30 08:49:38;;;;;;;11.32;2.85;;;22.10;46.20;;;;;;5059897;28;20131;-47
2021/05/30 08:52:04;;;;;;;9.27;2.85;;;22.10;46.70;;;;;;5066037;28;20413;-46
2021/05/30 08:54:31;;;;;;;8.00;2.45;;;22.00;43.60;;;;;;5060047;28;20032;-47
2021/05/30 08:56:56;;;;;;;14.52;3.28;;;22.00;46.90;;;;;;5064240;28;20021;-48
2021/05/30 08:59:33;;;;;;;13.48;4.55;;;22.00;48.30;;;;;;5059451;28;20033;-47
2021/05/30 09:02:13;;;;;;;9.35;4.00;;;22.00;48.90;;;;;;5053697;28;20060;-47
2021/05/30 09:04:48;;;;;;;10.38;2.70;;;22.00;47.30;;;;;;5053126;28;20823;-47
2021/05/30 09:07:14;;;;;;;7.30;2.30;;;22.00;46.70;;;;;;5053937;28;20104;-47
2021/05/30 09:09:45;;;;;;;6.40;2.50;;;22.00;45.90;;;;;;5053010;28;20128;-47
2021/05/30 09:12:38;;;;;;;6.35;2.20;;;21.90;45.70;;;;;;5054025;28;20036;-47
2021/05/30 09:15:37;;;;;;;3.95;1.80;;;21.90;44.00;;;;;;5054074;28;20029;-47
2021/05/30 09:18:20;;;;;;;3.55;1.98;;;21.90;44.30;;;;;;5048751;28;20045;-47
2021/05/30 09:21:08;;;;;;;4.57;1.80;;;21.90;43.00;;;;;;5053112;28;20021;-47
2021/05/30 09:23:40;;;;;;;5.45;2.30;;;21.90;43.60;;;;;;5052884;28;20032;-47
2021/05/30 09:26:10;;;;;;;54.70;13.05;;;21.90;43.20;;;;;;5053508;28;20112;-47
2021/05/30 09:28:36;;;;;;;40.85;11.13;;;21.90;44.20;;;;;;5052586;28;20124;-47
2021/05/30 09:31:03;;;;;;;18.33;5.15;;;21.90;43.80;;;;;;5053192;28;20025;-47
2021/05/30 09:33:30;;;;;;;13.60;4.30;;;21.90;42.80;;;;;;5052353;28;20033;-47
2021/05/30 09:35:59;;;;;;;18.63;3.83;;;21.90;44.00;;;;;;5053393;28;20033;-48
2021/05/30 09:38:37;;;;;;;11.30;3.83;;;21.90;42.80;;;;;;5052347;28;20104;-47
2021/05/30 09:41:12;;;;;;;13.35;3.17;;;21.90;41.20;;;;;;5053351;28;20033;-47
2021/05/30 09:43:52;;;;;;;9.68;3.17;;;21.90;41.80;;;;;;5051721;28;20028;-47
2021/05/30 09:46:20;;;;;;;12.52;3.08;;;21.80;43.80;;;;;;5053196;28;20025;-48
2021/05/30 09:48:49;;;;;;;9.38;2.50;;;21.90;43.50;;;;;;5045582;28;20071;-48
2021/05/30 09:51:39;;;;;;;6.80;3.00;;;21.90;42.40;;;;;;5054340;28;20025;-48
2021/05/30 09:54:14;;;;;;;14.07;2.80;;;21.90;44.00;;;;;;5061490;28;20654;-48
2021/05/30 09:56:42;;;;;;;15.65;2.95;;;21.90;44.80;;;;;;5059288;28;20429;-48
2021/05/30 09:59:12;;;;;;;15.77;2.97;;;21.90;44.60;;;;;;5056735;28;20517;-48
2021/05/30 10:01:52;;;;;;;18.92;2.88;;;21.90;44.60;;;;;;5061532;28;20074;-48
2021/05/30 10:04:19;;;;;;;17.90;4.07;;;21.90;44.50;;;;;;5063255;28;20087;-48
2021/05/30 10:06:44;;;;;;;11.45;2.88;;;21.90;43.80;;;;;;5058824;28;20033;-48
2021/05/30 10:09:11;;;;;;;9.90;2.47;;;21.90;44.20;;;;;;5060566;28;20035;-48
2021/05/30 10:11:41;;;;;;;9.40;2.45;;;21.90;44.30;;;;;;5058561;28;20029;-43
2021/05/30 10:14:07;;;;;;;6.38;1.90;;;21.90;44.50;;;;;;5059942;28;20041;-43
2021/05/30 10:16:34;;;;;;;5.90;2.35;;;21.90;44.80;;;;;;5062266;28;20488;-44
2021/05/30 10:19:16;;;;;;;7.40;2.30;;;21.90;46.20;;;;;;5057833;28;20029;-44
2021/05/30 10:21:47;;;;;;;8.68;2.20;;;21.90;46.60;;;;;;5060144;28;20840;-44
2021/05/30 10:24:14;;;;;;;4.70;2.35;;;22.00;47.20;;;;;;5061434;28;20471;-43
2021/05/30 10:26:40;;;;;;;10.93;2.67;;;22.00;48.60;;;;;;5051400;28;20039;-44
2021/05/30 10:29:16;;;;;;;6.63;2.10;;;22.10;50.20;;;;;;5052143;28;20116;-44
2021/05/30 10:31:46;;;;;;;6.05;2.00;;;22.10;50.50;;;;;;5051359;28;20835;-44
2021/05/30 10:34:18;;;;;;;7.57;2.80;;;22.20;51.00;;;;;;5051356;28;20378;-44
2021/05/30 10:36:54;;;;;;;7.35;2.55;;;22.20;51.60;;;;;;5051829;28;20188;-44
2021/05/30 10:39:28;;;;;;;7.32;2.50;;;22.20;51.80;;;;;;5052192;28;20036;-44
2021/05/30 10:42:17;;;;;;;6.30;2.08;;;22.20;52.10;;;;;;5052446;28;20033;-44
2021/05/30 10:45:00;;;;;;;11.57;2.90;;;22.20;52.40;;;;;;5051456;28;20602;-44
2021/05/30 10:47:44;;;;;;;6.10;2.40;;;22.20;52.50;;;;;;5051515;28;20035;-43
2021/05/30 10:50:18;;;;;;;8.25;2.10;;;22.20;55.00;;;;;;5052093;28;20021;-44
2021/05/30 10:52:47;;;;;;;6.68;2.42;;;22.20;52.20;;;;;;5051247;28;20029;-43
2021/05/30 10:55:40;;;;;;;5.30;2.97;;;22.30;50.50;;;;;;5051891;28;20398;-35
2021/05/30 10:58:16;;;;;;;8.10;2.58;;;22.30;47.50;;;;;;5048430;28;20049;-35
2021/05/30 11:00:42;;;;;;;9.32;2.28;;;22.10;46.20;;;;;;5044522;28;20307;-35
2021/05/30 11:03:12;;;;;;;6.93;2.47;;;22.10;45.00;;;;;;5051508;28;20039;-37
2021/05/30 11:05:51;;;;;;;4.53;1.98;;;22.10;42.70;;;;;;5051205;28;20024;-35
2021/05/30 11:08:32;;;;;;;5.18;1.98;;;22.10;44.20;;;;;;5052061;28;20047;-35
2021/05/30 11:11:16;;;;;;;8.73;2.13;;;22.20;43.60;;;;;;5051489;28;20355;-35
2021/05/30 11:14:21;;;;;;;5.35;1.67;;;22.00;41.80;;;;;;5050681;28;20045;-34
2021/05/30 11:16:48;;;;;;;4.65;1.98;;;22.00;42.60;;;;;;5047782;28;20048;-35
2021/05/30 11:19:19;;;;;;;5.60;1.80;;;22.00;40.40;;;;;;5051251;28;20025;-34
2021/05/30 11:21:47;;;;;;;7.88;2.22;;;22.00;40.70;;;;;;5050796;28;20029;-35
2021/05/30 11:24:15;;;;;;;17.90;3.28;;;21.80;40.00;;;;;;5051402;28;20036;-38
2021/05/30 11:27:00;;;;;;;22.15;2.90;;;21.80;40.90;;;;;;5050147;28;20193;-35
2021/05/30 11:29:28;;;;;;;8.40;2.92;;;21.80;40.60;;;;;;5050815;28;20033;-40
2021/05/30 11:31:53;;;;;;;13.30;2.20;;;21.80;40.10;;;;;;5051254;28;20037;-36
2021/05/30 11:34:20;;;;;;;10.55;2.58;;;21.80;39.70;;;;;;5050734;28;20029;-36
2021/05/30 11:36:47;;;;;;;10.25;2.15;;;21.80;40.20;;;;;;5049671;28;20029;-36
2021/05/30 11:39:18;;;;;;;5.97;2.15;;;21.70;40.10;;;;;;5051102;28;20115;-36
2021/05/30 11:41:51;;;;;;;7.82;1.80;;;21.70;40.90;;;;;;5050517;28;20029;-37
2021/05/30 11:44:21;;;;;;;7.53;1.92;;;21.80;40.50;;;;;;5044191;28;20103;-36
2021/05/30 11:46:48;;;;;;;6.30;2.13;;;21.80;39.90;;;;;;5050585;28;20021;-37
2021/05/30 11:49:21;;;;;;;7.07;1.70;;;21.80;39.90;;;;;;5042295;28;20036;-37
2021/05/30 11:52:03;;;;;;;2.67;1.67;;;21.80;37.90;;;;;;5050466;28;20036;-37
2021/05/30 11:54:35;;;;;;;2.97;1.77;;;21.80;39.40;;;;;;5050424;28;20359;-45
2021/05/30 11:57:05;;;;;;;2.47;1.33;;;21.90;38.30;;;;;;5050885;28;20021;-36
2021/05/30 11:59:40;;;;;;;6.95;1.70;;;21.80;39.80;;;;;;5050347;28;20087;-38
2021/05/30 12:02:08;;;;;;;5.80;1.50;;;21.80;37.80;;;;;;5050877;28;20083;-37
2021/05/30 12:04:35;;;;;;;2.88;1.48;;;21.80;39.70;;;;;;5050335;28;20044;-37
2021/05/30 12:07:00;;;;;;;3.03;1.85;;;21.90;39.00;;;;;;5053566;28;20017;-37
2021/05/30 12:09:48;;;;;;;4.53;1.70;;;21.90;39.20;;;;;;5050897;28;20025;-45
2021/05/30 12:12:32;;;;;;;3.50;1.75;;;21.90;39.10;;;;;;5051037;28;20037;-37
2021/05/30 12:15:14;;;;;;;8.43;1.58;;;21.90;39.90;;;;;;5050891;28;20416;-40
2021/05/30 12:17:44;;;;;;;2.80;1.40;;;22.00;40.30;;;;;;5044125;28;20056;-37
2021/05/30 12:20:19;;;;;;;3.30;1.65;;;22.00;40.20;;;;;;5050822;28;20055;-37
2021/05/30 12:22:45;;;;;;;1.90;1.50;;;22.00;40.20;;;;;;5050326;28;20033;-37
2021/05/30 12:25:11;;;;;;;3.20;1.38;;;22.00;40.70;;;;;;5055131;28;20025;-37
2021/05/30 12:27:37;;;;;;;2.90;1.70;;;22.00;40.90;;;;;;5054293;28;20092;-37
2021/05/30 12:30:04;;;;;;;1.67;1.30;;;22.00;39.60;;;;;;5054333;28;20037;-36
2021/05/30 12:32:29;;;;;;;6.35;1.58;;;22.00;38.70;;;;;;5053454;28;20107;-43
2021/05/30 12:34:55;;;;;;;3.58;1.58;;;21.90;37.80;;;;;;5053638;28;20033;-37
2021/05/30 12:37:41;;;;;;;3.10;1.38;;;21.90;38.10;;;;;;5053767;28;20375;-38
2021/05/30 12:40:09;;;;;;;3.80;1.25;;;21.90;39.90;;;;;;5055077;28;20033;-37
2021/05/30 12:42:36;;;;;;;4.63;1.33;;;22.00;39.60;;;;;;5053783;28;20108;-37
2021/05/30 12:45:10;;;;;;;1.98;1.50;;;22.00;40.00;;;;;;5053334;28;20068;-37
2021/05/30 12:47:42;;;;;;;2.33;1.20;;;22.10;40.20;;;;;;5053709;28;20021;-37
2021/05/30 12:50:13;;;;;;;1.50;1.25;;;22.10;40.10;;;;;;5054172;28;20037;-37
2021/05/30 12:52:50;;;;;;;3.35;1.83;;;22.10;40.20;;;;;;5053435;28;20032;-37
2021/05/30 12:55:24;;;;;;;2.78;1.40;;;22.10;40.20;;;;;;5053871;28;20423;-37